createdAt,value
2018-09-27T00:00:37.880Z,13.50
2018-09-27T00:03:07.161Z,13.50
2018-09-27T00:05:36.352Z,13.50
2018-09-27T00:08:05.214Z,13.50
2018-09-27T00:10:33.754Z,13.50
2018-09-27T00:13:02.335Z,13.50
2018-09-27T00:15:31.212Z,13.50
2018-09-27T00:17:59.712Z,13.50
2018-09-27T00:20:28.579Z,13.50
2018-09-27T00:22:57.846Z,13.60
2018-09-27T00:25:26.354Z,13.60
2018-09-27T00:27:54.871Z,13.60
2018-09-27T00:30:23.716Z,13.60
2018-09-27T00:32:52.585Z,13.60
2018-09-27T00:35:21.453Z,13.70
2018-09-27T00:37:50.074Z,13.70
2018-09-27T00:40:18.661Z,13.80
2018-09-27T00:42:47.626Z,13.80
2018-09-27T00:45:16.858Z,13.80
2018-09-27T00:47:45.374Z,13.80
2018-09-27T00:50:14.337Z,13.90
2018-09-27T00:52:42.981Z,13.90
2018-09-27T00:55:12.204Z,13.90
2018-09-27T00:57:41.102Z,13.90
2018-09-27T01:00:10.018Z,13.90
2018-09-27T01:02:38.737Z,14.00
2018-09-27T01:05:07.166Z,14.00
2018-09-27T01:07:35.727Z,14.00
2018-09-27T01:10:04.960Z,14.00
2018-09-27T01:12:33.811Z,14.00
2018-09-27T01:15:02.675Z,14.00
2018-09-27T01:17:32.365Z,14.00
2018-09-27T01:20:00.913Z,14.00
2018-09-27T01:22:29.849Z,14.10
2018-09-27T01:24:58.729Z,14.10
2018-09-27T01:27:27.306Z,14.20
2018-09-27T01:29:55.896Z,14.20
2018-09-27T01:32:24.767Z,14.20
2018-09-27T01:34:53.595Z,14.30
2018-09-27T01:37:22.153Z,14.30
2018-09-27T01:39:51.432Z,14.40
2018-09-27T01:42:20.029Z,14.40
2018-09-27T01:44:48.690Z,14.40
2018-09-27T01:47:17.594Z,14.50
2018-09-27T01:49:46.379Z,14.60
2018-09-27T01:52:15.020Z,14.60
2018-09-27T01:54:43.935Z,14.80
2018-09-27T01:57:12.521Z,14.80
2018-09-27T01:59:41.554Z,14.80
2018-09-27T02:02:10.471Z,14.80
2018-09-27T02:04:39.060Z,14.90
2018-09-27T02:07:08.277Z,14.90
2018-09-27T02:09:36.820Z,14.90
2018-09-27T02:12:05.682Z,14.90
2018-09-27T02:14:35.797Z,15.00
2018-09-27T02:17:04.300Z,14.90
2018-09-27T02:19:33.170Z,15.00
2018-09-27T02:22:01.708Z,15.10
2018-09-27T02:24:30.215Z,15.10
2018-09-27T02:26:59.199Z,15.00
2018-09-27T02:29:28.029Z,15.10
2018-09-27T02:31:56.837Z,15.10
2018-09-27T02:34:25.364Z,15.10
2018-09-27T02:36:54.560Z,15.10
2018-09-27T02:39:23.061Z,15.20
2018-09-27T02:41:51.604Z,15.30
2018-09-27T02:44:20.108Z,15.30
2018-09-27T02:46:48.940Z,15.30
2018-09-27T02:49:18.504Z,15.30
2018-09-27T02:51:47.052Z,15.30
2018-09-27T02:54:16.254Z,15.40
2018-09-27T02:56:44.769Z,15.40
2018-09-27T02:59:13.628Z,15.40
2018-09-27T03:01:42.141Z,15.40
2018-09-27T03:04:11.000Z,15.30
2018-09-27T03:06:39.504Z,15.30
2018-09-27T03:09:09.578Z,15.30
2018-09-27T03:11:38.428Z,15.40
2018-09-27T03:14:07.281Z,15.30
2018-09-27T03:16:36.125Z,15.40
2018-09-27T03:19:04.636Z,15.40
2018-09-27T03:21:33.146Z,15.50
2018-09-27T03:24:01.995Z,15.40
2018-09-27T03:26:35.784Z,15.40
2018-09-27T03:29:04.505Z,15.30
2018-09-27T03:31:33.120Z,15.30
2018-09-27T03:34:02.015Z,15.30
2018-09-27T03:36:31.913Z,15.30
2018-09-27T03:39:01.771Z,15.20
2018-09-27T03:41:30.528Z,15.30
2018-09-27T03:43:59.085Z,15.20
2018-09-27T03:46:27.633Z,15.20
2018-09-27T03:48:56.192Z,15.10
2018-09-27T03:51:24.710Z,15.10
2018-09-27T03:53:54.370Z,15.10
2018-09-27T03:56:24.612Z,15.20
2018-09-27T03:58:53.165Z,15.20
2018-09-27T04:01:22.499Z,15.10
2018-09-27T04:03:51.017Z,15.10
2018-09-27T04:06:19.556Z,15.10
2018-09-27T04:08:48.173Z,15.10
2018-09-27T04:11:17.028Z,15.10
2018-09-27T04:13:45.561Z,15.00
2018-09-27T04:16:14.216Z,15.00
2018-09-27T04:18:43.164Z,15.00
2018-09-27T04:21:13.304Z,15.10
2018-09-27T04:23:48.660Z,15.10
2018-09-27T04:26:17.535Z,15.10
2018-09-27T04:28:46.289Z,15.10
2018-09-27T04:31:14.775Z,15.10
2018-09-27T04:33:43.360Z,15.10
2018-09-27T04:36:12.333Z,15.10
2018-09-27T04:38:41.173Z,15.40
2018-09-27T04:41:09.753Z,15.30
2018-09-27T04:43:38.320Z,15.20
2018-09-27T04:46:07.509Z,15.10
2018-09-27T04:48:36.028Z,15.00
2018-09-27T04:51:04.976Z,15.00
2018-09-27T04:53:33.825Z,15.00
2018-09-27T04:56:02.663Z,14.90
2018-09-27T04:58:31.859Z,14.90
2018-09-27T05:01:01.238Z,14.90
2018-09-27T05:03:30.540Z,14.90
2018-09-27T05:05:59.816Z,15.00
2018-09-27T05:08:28.385Z,15.10
2018-09-27T05:10:57.312Z,15.00
2018-09-27T05:13:25.861Z,15.10
2018-09-27T05:15:54.393Z,15.00
2018-09-27T05:18:23.071Z,15.00
2018-09-27T05:20:52.229Z,15.00
2018-09-27T05:23:21.076Z,14.90
2018-09-27T05:25:49.606Z,14.90
2018-09-27T05:28:18.106Z,14.90
2018-09-27T05:30:46.609Z,15.00
2018-09-27T05:33:15.481Z,14.90
2018-09-27T05:35:43.993Z,15.00
2018-09-27T05:38:12.528Z,15.00
2018-09-27T05:40:41.732Z,15.00
2018-09-27T05:43:10.332Z,15.00
2018-09-27T05:45:39.039Z,15.00
2018-09-27T05:48:08.062Z,15.00
2018-09-27T05:50:36.926Z,15.00
2018-09-27T05:53:06.089Z,15.00
2018-09-27T05:55:35.276Z,15.00
2018-09-27T05:58:03.797Z,15.10
2018-09-27T06:00:32.723Z,15.10
2018-09-27T06:03:01.223Z,15.10
2018-09-27T06:05:29.731Z,15.10
2018-09-27T06:07:58.672Z,15.10
2018-09-27T06:10:27.218Z,15.10
2018-09-27T06:12:56.287Z,15.20
2018-09-27T06:15:25.154Z,15.20
2018-09-27T06:17:54.193Z,15.20
2018-09-27T06:20:23.048Z,15.20
2018-09-27T06:22:51.836Z,15.20
2018-09-27T06:25:20.349Z,15.30
2018-09-27T06:27:49.061Z,15.30
2018-09-27T06:30:17.567Z,15.30
2018-09-27T06:32:46.037Z,15.30
2018-09-27T06:35:14.926Z,15.30
2018-09-27T06:37:43.783Z,15.30
2018-09-27T06:40:12.330Z,15.40
2018-09-27T06:42:40.856Z,15.30
2018-09-27T06:45:10.176Z,15.40
2018-09-27T06:47:38.853Z,15.40
2018-09-27T06:50:07.998Z,15.40
2018-09-27T06:52:36.878Z,15.40
2018-09-27T06:55:05.577Z,15.40
2018-09-27T06:57:34.876Z,15.40
2018-09-27T07:00:03.853Z,15.50
2018-09-27T07:02:41.214Z,15.50
2018-09-27T07:05:11.137Z,15.50
2018-09-27T07:07:39.825Z,15.50
2018-09-27T07:10:09.332Z,15.60
2018-09-27T07:12:37.920Z,15.60
2018-09-27T07:15:06.644Z,15.60
2018-09-27T07:17:35.148Z,15.60
2018-09-27T07:20:04.052Z,15.70
2018-09-27T07:22:32.906Z,15.60
2018-09-27T07:25:01.492Z,15.50
2018-09-27T07:27:30.548Z,15.60
2018-09-27T07:29:59.472Z,15.60
2018-09-27T07:32:28.752Z,15.60
2018-09-27T07:34:57.837Z,15.60
2018-09-27T07:37:26.346Z,15.70
2018-09-27T07:39:55.720Z,15.70
2018-09-27T07:42:24.681Z,15.80
2018-09-27T07:44:53.361Z,15.80
2018-09-27T07:47:22.779Z,15.80
2018-09-27T07:49:51.273Z,15.80
2018-09-27T07:52:19.897Z,15.80
2018-09-27T07:54:48.845Z,15.80
2018-09-27T07:57:17.500Z,15.90
2018-09-27T07:59:46.253Z,16.00
2018-09-27T08:02:15.179Z,16.30
2018-09-27T08:04:43.706Z,16.60
2018-09-27T08:07:12.589Z,16.50
2018-09-27T08:09:41.071Z,16.40
2018-09-27T08:12:09.579Z,16.40
2018-09-27T08:14:38.104Z,16.30
2018-09-27T08:17:07.717Z,16.30
2018-09-27T08:19:36.617Z,16.30
2018-09-27T08:22:05.443Z,16.30
2018-09-27T08:24:34.973Z,16.30
2018-09-27T08:27:03.846Z,16.40
2018-09-27T08:29:33.606Z,16.50
2018-09-27T08:32:02.454Z,16.50
2018-09-27T08:34:31.348Z,16.60
2018-09-27T08:36:59.829Z,16.70
2018-09-27T08:39:28.328Z,16.80
2018-09-27T08:41:57.524Z,16.90
2018-09-27T08:44:26.036Z,17.00
2018-09-27T08:46:54.761Z,17.20
2018-09-27T08:49:23.676Z,17.30
2018-09-27T08:51:52.503Z,17.40
2018-09-27T08:54:20.976Z,17.40
2018-09-27T08:56:50.799Z,17.50
2018-09-27T08:59:19.613Z,17.50
2018-09-27T09:01:48.421Z,17.50
2018-09-27T09:04:16.913Z,17.50
2018-09-27T09:06:45.426Z,17.60
2018-09-27T09:09:14.392Z,17.70
2018-09-27T09:11:42.887Z,17.70
2018-09-27T09:14:12.228Z,17.70
2018-09-27T09:16:41.080Z,17.80
2018-09-27T09:19:10.227Z,17.80
2018-09-27T09:21:42.526Z,17.90
2018-09-27T09:24:11.472Z,18.00
2018-09-27T09:26:40.371Z,18.00
2018-09-27T09:29:08.876Z,18.00
2018-09-27T09:31:37.697Z,17.90
2018-09-27T09:34:06.561Z,18.00
2018-09-27T09:36:35.029Z,18.10
2018-09-27T09:39:05.054Z,18.10
2018-09-27T09:41:33.942Z,18.20
2018-09-27T09:44:02.819Z,18.20
2018-09-27T09:46:31.454Z,18.30
2018-09-27T09:48:59.982Z,18.30
2018-09-27T09:51:28.518Z,18.30
2018-09-27T09:53:57.687Z,18.30
2018-09-27T09:56:26.536Z,18.40
2018-09-27T09:58:55.101Z,18.50
2018-09-27T10:01:23.627Z,18.60
2018-09-27T10:03:52.142Z,18.80
2018-09-27T10:06:20.690Z,18.90
2018-09-27T10:08:49.495Z,19.10
2018-09-27T10:11:18.462Z,19.20
2018-09-27T10:13:46.966Z,19.30
2018-09-27T10:16:15.785Z,19.20
2018-09-27T10:18:44.289Z,19.30
2018-09-27T10:21:13.132Z,19.30
2018-09-27T10:23:41.962Z,19.40
2018-09-27T10:26:10.850Z,19.40
2018-09-27T10:28:39.680Z,19.60
2018-09-27T10:31:08.625Z,19.70
2018-09-27T10:33:37.209Z,19.80
2018-09-27T10:36:06.035Z,20.10
2018-09-27T10:38:34.533Z,20.20
2018-09-27T10:41:03.413Z,20.30
2018-09-27T10:43:32.561Z,20.50
2018-09-27T10:46:01.435Z,20.60
2018-09-27T10:48:30.036Z,20.70
2018-09-27T10:50:58.530Z,20.80
2018-09-27T10:53:27.095Z,21.00
2018-09-27T10:55:56.198Z,21.20
2018-09-27T10:59:53.073Z,21.40
2018-09-27T11:02:30.839Z,21.60
2018-09-27T11:04:59.693Z,22.00
2018-09-27T11:07:28.544Z,22.20
2018-09-27T11:09:57.399Z,22.20
2018-09-27T11:12:27.030Z,22.30
2018-09-27T11:14:55.552Z,22.30
2018-09-27T11:17:24.125Z,22.40
2018-09-27T11:19:52.992Z,22.40
2018-09-27T11:22:21.567Z,22.50
2018-09-27T11:24:50.117Z,22.40
2018-09-27T11:27:19.022Z,22.70
2018-09-27T11:29:53.063Z,22.90
2018-09-27T11:32:27.007Z,22.80
2018-09-27T11:34:55.841Z,22.80
2018-09-27T11:37:25.270Z,22.80
2018-09-27T11:39:53.824Z,22.80
2018-09-27T11:42:24.476Z,22.70
2018-09-27T11:44:53.026Z,22.70
2018-09-27T11:47:22.044Z,22.90
2018-09-27T11:49:55.154Z,23.00
2018-09-27T11:52:23.833Z,23.00
2018-09-27T11:54:52.671Z,23.20
2018-09-27T11:57:21.373Z,23.40
2018-09-27T11:59:51.127Z,23.40
2018-09-27T12:02:19.680Z,23.50
2018-09-27T12:04:48.238Z,23.70
2018-09-27T12:07:17.075Z,23.90
2018-09-27T12:09:45.576Z,24.10
2018-09-27T12:12:14.580Z,24.20
2018-09-27T12:14:43.203Z,24.40
2018-09-27T12:17:12.162Z,24.40
2018-09-27T12:19:41.265Z,24.60
2018-09-27T12:22:10.236Z,24.70
2018-09-27T12:24:39.057Z,24.50
2018-09-27T12:27:07.987Z,24.50
2018-09-27T12:29:36.806Z,24.30
2018-09-27T12:32:05.311Z,24.50
2018-09-27T12:34:33.844Z,24.60
2018-09-27T12:37:02.681Z,24.60
2018-09-27T12:39:31.572Z,24.80
2018-09-27T12:42:00.796Z,24.80
2018-09-27T12:44:29.285Z,25.00
2018-09-27T12:46:57.917Z,25.30
2018-09-27T12:49:26.580Z,25.40
2018-09-27T12:51:55.593Z,25.50
2018-09-27T12:54:23.965Z,25.50
2018-09-27T12:56:52.205Z,25.50
2018-09-27T12:59:20.781Z,24.90
2018-09-27T13:01:49.452Z,25.00
2018-09-27T13:04:19.384Z,25.40
2018-09-27T13:13:45.746Z,25.80
2018-09-27T13:16:14.464Z,26.20
2018-09-27T13:18:43.046Z,26.30
2018-09-27T13:21:11.618Z,26.40
2018-09-27T13:23:40.249Z,26.40
2018-09-27T13:26:08.926Z,26.40
2018-09-27T13:28:37.278Z,26.40
2018-09-27T13:31:06.232Z,26.40
2018-09-27T13:33:34.704Z,26.50
2018-09-27T13:36:02.953Z,26.60
2018-09-27T13:38:31.274Z,26.60
2018-09-27T13:40:59.820Z,26.70
2018-09-27T13:43:28.398Z,26.80
2018-09-27T13:45:57.358Z,26.90
2018-09-27T13:48:26.031Z,27.00
2018-09-27T13:50:54.327Z,27.20
2018-09-27T13:54:26.200Z,27.20
2018-09-27T13:56:54.504Z,27.30
2018-09-27T13:59:23.308Z,27.40
2018-09-27T14:01:51.541Z,27.40
2018-09-27T14:04:19.780Z,27.40
2018-09-27T14:06:48.036Z,27.40
2018-09-27T14:09:17.181Z,27.50
2018-09-27T14:11:45.780Z,27.60
2018-09-27T14:14:14.673Z,27.70
2018-09-27T14:16:43.737Z,27.70
2018-09-27T14:19:12.350Z,27.60
2018-09-27T14:21:41.093Z,27.50
2018-09-27T14:24:09.390Z,27.50
2018-09-27T14:26:38.049Z,27.30
2018-09-27T14:29:07.977Z,27.50
2018-09-27T14:31:36.543Z,27.50
2018-09-27T14:34:05.099Z,27.50
2018-09-27T14:43:33.309Z,27.60
2018-09-27T14:46:01.892Z,27.80
2018-09-27T14:48:30.779Z,27.90
2018-09-27T14:50:59.049Z,27.90
2018-09-27T14:53:28.104Z,28.00
2018-09-27T14:55:56.558Z,28.20
2018-09-27T14:58:30.767Z,28.20
2018-09-27T15:00:59.852Z,28.30
2018-09-27T15:03:28.429Z,28.50
2018-09-27T15:05:57.900Z,28.60
2018-09-27T15:08:26.543Z,28.60
2018-09-27T15:10:54.817Z,28.80
2018-09-27T15:13:24.172Z,29.00
2018-09-27T15:15:52.764Z,29.30
2018-09-27T15:18:21.328Z,29.80
2018-09-27T15:20:49.984Z,30.10
2018-09-27T15:23:18.574Z,30.10
2018-09-27T15:25:47.646Z,30.40
2018-09-27T15:28:15.924Z,30.70
2018-09-27T15:30:44.557Z,30.80
2018-09-27T15:33:13.501Z,31.10
2018-09-27T15:35:42.103Z,31.20
2018-09-27T15:38:10.685Z,31.20
2018-09-27T15:40:39.261Z,30.90
2018-09-27T15:43:11.828Z,30.20
2018-09-27T15:45:40.817Z,29.10
2018-09-27T15:48:09.628Z,28.10
2018-09-27T15:50:38.430Z,27.70
2018-09-27T15:53:07.626Z,27.40
2018-09-27T15:55:35.913Z,27.00
2018-09-27T15:58:04.728Z,26.80
2018-09-27T16:00:34.080Z,26.70
2018-09-27T16:03:02.340Z,26.40
2018-09-27T16:05:30.970Z,26.20
2018-09-27T16:07:59.225Z,26.10
2018-09-27T16:10:28.029Z,26.00
2018-09-27T16:12:57.258Z,25.90
2018-09-27T16:15:25.505Z,25.60
2018-09-27T16:17:53.765Z,25.50
2018-09-27T16:20:22.325Z,25.30
2018-09-27T16:22:50.552Z,25.10
2018-09-27T16:25:20.069Z,24.90
2018-09-27T16:27:48.710Z,24.70
2018-09-27T16:30:17.344Z,24.50
2018-09-27T16:32:46.972Z,24.20
2018-09-27T16:35:15.894Z,24.10
2018-09-27T16:37:44.785Z,23.90
2018-09-27T16:40:13.428Z,23.70
2018-09-27T16:42:42.354Z,23.60
2018-09-27T16:45:10.938Z,23.40
2018-09-27T16:47:39.254Z,23.30
2018-09-27T16:50:08.565Z,23.10
2018-09-27T16:52:38.598Z,23.00
2018-09-27T16:55:07.301Z,22.90
2018-09-27T16:57:37.034Z,22.70
2018-09-27T17:00:06.538Z,22.70
2018-09-27T17:05:34.871Z,22.40
2018-09-27T17:08:03.887Z,22.30
2018-09-27T17:10:40.240Z,22.20
2018-09-27T17:13:08.844Z,22.10
2018-09-27T17:15:37.812Z,22.00
2018-09-27T17:18:07.348Z,21.90
2018-09-27T17:20:46.853Z,21.80
2018-09-27T17:23:15.409Z,21.70
2018-09-27T17:25:44.174Z,21.70
2018-09-27T17:28:13.538Z,21.60
2018-09-27T17:30:42.789Z,21.50
2018-09-27T17:33:23.834Z,21.50
2018-09-27T17:35:52.384Z,21.40
2018-09-27T17:41:00.885Z,21.20
2018-09-27T17:43:30.151Z,21.10
2018-09-27T17:45:59.048Z,21.10
2018-09-27T17:48:27.859Z,20.90
2018-09-27T17:50:57.037Z,20.90
2018-09-27T17:53:25.783Z,20.80
2018-09-27T17:55:54.646Z,20.80
2018-09-27T17:58:23.216Z,20.70
2018-09-27T18:00:52.801Z,20.60
2018-09-27T18:03:21.332Z,20.50
2018-09-27T18:05:50.813Z,20.50
2018-09-27T18:08:31.153Z,20.40
2018-09-27T18:11:00.070Z,20.30
2018-09-27T18:13:29.246Z,20.20
2018-09-27T18:15:57.966Z,20.10
2018-09-27T18:18:27.573Z,20.00
2018-09-27T18:20:56.470Z,20.00
2018-09-27T18:23:25.983Z,20.00
2018-09-27T18:25:54.709Z,20.00
2018-09-27T18:28:25.346Z,20.00
2018-09-27T18:30:54.076Z,19.90
2018-09-27T18:33:22.576Z,19.80
2018-09-27T18:35:51.659Z,19.80
2018-09-27T18:38:20.241Z,19.80
2018-09-27T18:40:48.893Z,19.70
2018-09-27T18:43:17.474Z,19.60
2018-09-27T18:45:50.471Z,19.50
2018-09-27T18:48:19.121Z,19.50
2018-09-27T18:50:47.637Z,19.50
2018-09-27T18:53:17.580Z,19.40
2018-09-27T18:55:48.205Z,19.40
2018-09-27T18:58:18.641Z,19.40
2018-09-27T19:00:47.191Z,19.30
2018-09-27T19:06:11.340Z,19.20
2018-09-27T19:08:41.828Z,19.20
2018-09-27T19:11:10.390Z,19.20
2018-09-27T19:13:39.538Z,19.10
2018-09-27T19:16:08.168Z,19.10
2018-09-27T19:18:37.638Z,19.00
2018-09-27T19:21:06.564Z,19.00
2018-09-27T19:23:35.133Z,18.90
2018-09-27T19:26:04.088Z,18.90
2018-09-27T19:28:33.110Z,18.80
2018-09-27T19:31:02.004Z,18.70
2018-09-27T19:33:30.933Z,18.60
2018-09-27T19:35:59.518Z,18.50
2018-09-27T19:38:28.273Z,18.50
2018-09-27T19:40:56.806Z,18.40
2018-09-27T19:43:25.697Z,18.30
2018-09-27T19:45:54.301Z,18.30
2018-09-27T19:48:22.854Z,18.20
2018-09-27T19:50:52.125Z,18.20
2018-09-27T19:53:20.976Z,18.10
2018-09-27T19:55:50.209Z,18.10
2018-09-27T19:58:18.786Z,18.10
2018-09-27T20:00:47.524Z,18.10
2018-09-27T20:03:16.384Z,18.00
2018-09-27T20:05:44.898Z,18.00
2018-09-27T20:08:13.630Z,18.00
2018-09-27T20:10:42.805Z,17.90
2018-09-27T20:13:11.368Z,17.90
2018-09-27T20:15:40.376Z,17.90
2018-09-27T20:18:08.911Z,17.80
2018-09-27T20:20:37.764Z,17.80
2018-09-27T20:23:06.339Z,17.70
2018-09-27T20:25:36.506Z,17.70
2018-09-27T20:28:05.369Z,17.70
2018-09-27T20:30:34.080Z,17.70
2018-09-27T20:33:03.016Z,17.70
2018-09-27T20:35:32.199Z,17.60
2018-09-27T20:38:01.046Z,17.60
2018-09-27T20:40:29.567Z,17.50
2018-09-27T20:42:58.074Z,17.50
2018-09-27T20:45:26.889Z,17.50
2018-09-27T20:47:55.367Z,17.50
2018-09-27T20:50:23.896Z,17.40
2018-09-27T20:52:52.865Z,17.40
2018-09-27T20:55:21.404Z,17.40
2018-09-27T20:57:50.012Z,17.40
2018-09-27T21:00:18.537Z,17.30
2018-09-27T21:02:47.092Z,17.30
2018-09-27T21:05:15.652Z,17.20
2018-09-27T21:07:44.152Z,17.20
2018-09-27T21:10:12.997Z,17.20
2018-09-27T21:12:41.463Z,17.20
2018-09-27T21:15:10.452Z,17.20
2018-09-27T21:17:39.772Z,17.20
2018-09-27T21:20:08.609Z,17.10
2018-09-27T21:22:37.101Z,17.10
2018-09-27T21:25:06.156Z,17.00
2018-09-27T21:27:35.312Z,16.90
2018-09-27T21:30:03.802Z,16.80
2018-09-27T21:32:32.296Z,16.80
2018-09-27T21:35:01.124Z,16.80
2018-09-27T21:37:29.973Z,16.70
2018-09-27T21:39:58.489Z,16.60
2018-09-27T21:42:26.961Z,16.60
2018-09-27T21:44:55.618Z,16.60
2018-09-27T21:47:24.464Z,16.40
2018-09-27T21:49:53.048Z,16.40
2018-09-27T21:52:22.296Z,16.30
2018-09-27T21:54:50.810Z,16.30
2018-09-27T21:57:19.318Z,16.30
2018-09-27T21:59:49.203Z,16.20
2018-09-27T22:02:18.076Z,16.30
2018-09-27T22:04:46.565Z,16.20
2018-09-27T22:07:15.449Z,16.10
2018-09-27T22:09:43.965Z,16.10
2018-09-27T22:12:13.161Z,16.10
2018-09-27T22:14:43.028Z,16.10
2018-09-27T22:17:11.876Z,16.10
2018-09-27T22:19:40.458Z,16.00
2018-09-27T22:22:08.945Z,16.00
2018-09-27T22:24:37.748Z,16.00
2018-09-27T22:27:06.579Z,15.90
2018-09-27T22:29:35.468Z,15.90
2018-09-27T22:32:04.324Z,15.90
2018-09-27T22:34:33.589Z,15.90
2018-09-27T22:37:02.068Z,15.80
2018-09-27T22:39:30.560Z,15.80
2018-09-27T22:41:59.042Z,15.80
2018-09-27T22:44:27.856Z,15.80
2018-09-27T22:46:56.343Z,15.70
2018-09-27T22:49:24.846Z,15.70
2018-09-27T22:51:53.319Z,15.60
2018-09-27T22:54:22.768Z,15.60
2018-09-27T22:56:51.277Z,15.60
2018-09-27T22:59:19.776Z,15.60
2018-09-27T23:01:49.084Z,15.50
2018-09-27T23:04:17.916Z,15.50
2018-09-27T23:06:46.725Z,15.40
2018-09-27T23:09:15.205Z,15.40
2018-09-27T23:11:43.703Z,15.40
2018-09-27T23:14:13.071Z,15.30
2018-09-27T23:16:41.893Z,15.30
2018-09-27T23:19:11.736Z,15.20
2018-09-27T23:21:40.555Z,15.20
2018-09-27T23:24:09.048Z,15.20
2018-09-27T23:26:37.555Z,15.20
2018-09-27T23:29:06.728Z,15.10
2018-09-27T23:31:35.208Z,15.10
2018-09-27T23:34:04.401Z,15.20
2018-09-27T23:36:33.252Z,15.10
2018-09-27T23:39:02.428Z,15.10
2018-09-27T23:41:31.241Z,15.00
2018-09-27T23:43:59.757Z,15.00
2018-09-27T23:46:28.567Z,14.90
2018-09-27T23:48:57.056Z,14.90
2018-09-27T23:51:25.881Z,14.90
2018-09-27T23:53:54.364Z,14.80
2018-09-27T23:56:23.190Z,14.70
2018-09-27T23:58:52.075Z,14.70
